createdAt,value
2019-03-25T00:00:44.344Z,0
2019-03-25T00:01:44.345Z,0
2019-03-25T00:02:44.407Z,0
2019-03-25T00:03:44.342Z,0
2019-03-25T00:04:44.346Z,0
2019-03-25T00:05:44.409Z,0
2019-03-25T00:06:44.350Z,0
2019-03-25T00:07:44.397Z,0
2019-03-25T00:08:44.321Z,0
2019-03-25T00:09:44.416Z,0
2019-03-25T00:10:44.399Z,0
2019-03-25T00:11:44.380Z,0
2019-03-25T00:12:44.359Z,0
2019-03-25T00:13:44.280Z,0
2019-03-25T00:14:44.415Z,0
2019-03-25T00:15:44.298Z,0
2019-03-25T00:16:44.299Z,0
2019-03-25T00:17:44.365Z,0
2019-03-25T00:18:44.301Z,0
2019-03-25T00:19:44.358Z,0
2019-03-25T00:20:44.369Z,0
2019-03-25T00:21:44.349Z,0
2019-03-25T00:22:44.415Z,0
2019-03-25T00:23:44.372Z,0
2019-03-25T00:24:44.294Z,0
2019-03-25T00:25:44.365Z,0
2019-03-25T00:26:44.329Z,0
2019-03-25T00:27:44.413Z,0
2019-03-25T00:28:44.294Z,0
2019-03-25T00:29:44.289Z,0
2019-03-25T00:30:44.386Z,0
2019-03-25T00:31:44.356Z,0
2019-03-25T00:32:44.360Z,0
2019-03-25T00:33:44.297Z,0
2019-03-25T00:34:44.319Z,0
2019-03-25T00:35:44.419Z,0
2019-03-25T00:36:44.351Z,0
2019-03-25T00:37:44.307Z,0
2019-03-25T00:38:44.311Z,0
2019-03-25T00:39:44.376Z,0
2019-03-25T00:40:44.405Z,0
2019-03-25T00:41:44.435Z,0
2019-03-25T00:42:44.432Z,0
2019-03-25T00:43:44.411Z,0
2019-03-25T00:44:44.429Z,0
2019-03-25T00:45:44.405Z,0
2019-03-25T00:46:44.371Z,0
2019-03-25T00:47:44.442Z,0
2019-03-25T00:48:44.378Z,0
2019-03-25T00:49:44.440Z,0
2019-03-25T00:50:44.443Z,0
2019-03-25T00:51:44.446Z,0
2019-03-25T00:52:44.377Z,0
2019-03-25T00:53:44.443Z,0
2019-03-25T00:54:49.952Z,0
2019-03-25T00:55:44.444Z,0
2019-03-25T00:56:44.379Z,0
2019-03-25T00:57:44.459Z,0
2019-03-25T00:58:44.374Z,0
2019-03-25T00:59:44.450Z,0
2019-03-25T01:00:44.453Z,0
2019-03-25T01:01:44.379Z,0
2019-03-25T01:02:44.451Z,0
2019-03-25T01:03:44.467Z,0
2019-03-25T01:04:44.386Z,0
2019-03-25T01:05:44.483Z,0
2019-03-25T01:06:44.380Z,0
2019-03-25T01:07:44.462Z,0
2019-03-25T01:08:44.407Z,0
2019-03-25T01:09:44.464Z,0
2019-03-25T01:10:44.471Z,0
2019-03-25T01:11:48.975Z,0
2019-03-25T01:12:44.467Z,0
2019-03-25T01:13:44.453Z,0
2019-03-25T01:14:44.480Z,0
2019-03-25T01:15:44.476Z,0
2019-03-25T01:16:44.473Z,0
2019-03-25T01:17:44.408Z,0
2019-03-25T01:18:44.441Z,0
2019-03-25T01:19:44.411Z,0
2019-03-25T01:20:44.386Z,0
2019-03-25T01:21:44.435Z,0
2019-03-25T01:22:44.373Z,0
2019-03-25T01:23:44.468Z,0
2019-03-25T01:24:44.473Z,0
2019-03-25T01:25:44.473Z,0
2019-03-25T01:26:44.451Z,0
2019-03-25T01:27:44.478Z,0
2019-03-25T01:28:44.406Z,0
2019-03-25T01:29:44.488Z,0
2019-03-25T01:30:44.489Z,0
2019-03-25T01:31:44.409Z,0
2019-03-25T01:32:44.409Z,0
2019-03-25T01:33:44.412Z,0
2019-03-25T01:34:44.485Z,0
2019-03-25T01:35:44.494Z,0
2019-03-25T01:36:44.413Z,0
2019-03-25T01:37:44.484Z,0
2019-03-25T01:38:44.414Z,0
2019-03-25T01:39:44.483Z,0
2019-03-25T01:40:44.493Z,0
2019-03-25T01:41:44.494Z,0
2019-03-25T01:42:44.475Z,0
2019-03-25T01:43:44.490Z,0
2019-03-25T01:44:44.491Z,0
2019-03-25T01:45:44.488Z,0
2019-03-25T01:46:44.434Z,0
2019-03-25T01:47:44.418Z,0
2019-03-25T01:48:44.418Z,0
2019-03-25T01:49:44.438Z,0
2019-03-25T01:50:44.447Z,0
2019-03-25T01:51:44.443Z,0
2019-03-25T01:52:44.503Z,0
2019-03-25T01:53:44.427Z,0
2019-03-25T01:54:44.496Z,0
2019-03-25T01:55:44.386Z,0
2019-03-25T01:56:44.441Z,0
2019-03-25T01:57:44.424Z,0
2019-03-25T01:58:44.425Z,0
2019-03-25T01:59:44.491Z,0
2019-03-25T02:00:44.425Z,0
2019-03-25T02:01:44.496Z,0
2019-03-25T02:02:44.437Z,0
2019-03-25T02:03:44.505Z,0
2019-03-25T02:04:44.423Z,0
2019-03-25T02:05:44.494Z,0
2019-03-25T02:06:44.556Z,0
2019-03-25T02:07:44.515Z,0
2019-03-25T02:08:44.456Z,0
2019-03-25T02:09:44.512Z,0
2019-03-25T02:10:44.512Z,0
2019-03-25T02:11:44.467Z,0
2019-03-25T02:12:44.535Z,0
2019-03-25T02:13:44.459Z,0
2019-03-25T02:14:44.512Z,0
2019-03-25T02:15:44.454Z,0
2019-03-25T02:16:44.518Z,0
2019-03-25T02:17:44.455Z,0
2019-03-25T02:18:44.518Z,0
2019-03-25T02:19:44.452Z,0
2019-03-25T02:20:44.447Z,0
2019-03-25T02:21:44.515Z,0
2019-03-25T02:22:44.696Z,0
2019-03-25T02:23:44.465Z,0
2019-03-25T02:24:44.461Z,0
2019-03-25T02:25:44.464Z,0
2019-03-25T02:26:44.464Z,0
2019-03-25T02:27:44.459Z,0
2019-03-25T02:28:44.464Z,0
2019-03-25T02:29:44.471Z,0
2019-03-25T02:30:44.477Z,0
2019-03-25T02:31:44.456Z,0
2019-03-25T02:32:44.497Z,0
2019-03-25T02:33:44.530Z,0
2019-03-25T02:34:44.475Z,0
2019-03-25T02:35:44.541Z,0
2019-03-25T02:36:44.470Z,0
2019-03-25T02:37:44.526Z,0
2019-03-25T02:38:44.506Z,0
2019-03-25T02:39:44.392Z,0
2019-03-25T02:40:44.425Z,0
2019-03-25T02:41:44.399Z,0
2019-03-25T02:42:44.512Z,0
2019-03-25T02:43:44.539Z,0
2019-03-25T02:44:44.455Z,0
2019-03-25T02:45:44.448Z,0
2019-03-25T02:46:44.476Z,0
2019-03-25T02:47:44.463Z,0
2019-03-25T02:48:44.489Z,0
2019-03-25T02:49:44.485Z,0
2019-03-25T02:50:44.554Z,0
2019-03-25T02:51:44.493Z,0
2019-03-25T02:52:44.497Z,0
2019-03-25T02:53:44.466Z,0
2019-03-25T02:54:44.555Z,0
2019-03-25T02:55:44.546Z,0
2019-03-25T02:56:44.573Z,0
2019-03-25T02:57:44.615Z,0
2019-03-25T02:58:44.544Z,0
2019-03-25T02:59:44.565Z,0
2019-03-25T03:00:44.472Z,0
2019-03-25T03:01:44.550Z,0
2019-03-25T03:02:44.542Z,0
2019-03-25T03:03:44.557Z,0
2019-03-25T03:04:44.470Z,0
2019-03-25T03:05:44.553Z,0
2019-03-25T03:06:44.549Z,0
2019-03-25T03:07:44.498Z,0
2019-03-25T03:08:47.534Z,0
2019-03-25T03:09:44.490Z,0
2019-03-25T03:10:44.497Z,0
2019-03-25T03:11:44.561Z,0
2019-03-25T03:12:44.456Z,0
2019-03-25T03:13:44.561Z,0
2019-03-25T03:14:44.558Z,0
2019-03-25T03:15:44.672Z,0
2019-03-25T03:16:44.491Z,0
2019-03-25T03:17:44.554Z,0
2019-03-25T03:18:44.503Z,0
2019-03-25T03:19:44.399Z,0
2019-03-25T03:20:44.443Z,0
2019-03-25T03:21:44.434Z,0
2019-03-25T03:22:44.462Z,0
2019-03-25T03:23:44.448Z,0
2019-03-25T03:24:44.385Z,0
2019-03-25T03:25:56.340Z,0
2019-03-25T03:26:44.441Z,0
2019-03-25T03:27:44.557Z,0
2019-03-25T03:28:44.478Z,0
2019-03-25T03:29:44.504Z,0
2019-03-25T03:30:44.562Z,0
2019-03-25T03:31:44.573Z,0
2019-03-25T03:32:44.566Z,0
2019-03-25T03:33:44.604Z,0
2019-03-25T03:34:44.575Z,0
2019-03-25T03:35:46.539Z,0
2019-03-25T03:36:44.492Z,0
2019-03-25T03:37:44.567Z,0
2019-03-25T03:38:44.546Z,0
2019-03-25T03:39:44.428Z,0
2019-03-25T03:40:44.517Z,0
2019-03-25T03:41:44.474Z,0
2019-03-25T03:42:44.445Z,0
2019-03-25T03:43:44.518Z,0
2019-03-25T03:44:44.466Z,0
2019-03-25T03:45:44.565Z,0
2019-03-25T03:46:44.575Z,0
2019-03-25T03:47:44.491Z,0
2019-03-25T03:48:44.471Z,0
2019-03-25T03:49:44.499Z,0
2019-03-25T03:50:44.474Z,0
2019-03-25T03:51:44.525Z,0
2019-03-25T03:52:44.512Z,0
2019-03-25T03:53:44.458Z,0
2019-03-25T03:54:44.580Z,0
2019-03-25T03:55:44.537Z,0
2019-03-25T03:56:44.579Z,0
2019-03-25T03:57:44.565Z,0
2019-03-25T03:58:44.468Z,0
2019-03-25T03:59:44.504Z,0
2019-03-25T04:00:44.555Z,0
2019-03-25T04:01:44.541Z,0
2019-03-25T04:02:44.454Z,0
2019-03-25T04:03:44.470Z,0
2019-03-25T04:04:44.514Z,0
2019-03-25T04:05:44.543Z,0
2019-03-25T04:06:44.546Z,0
2019-03-25T04:07:44.486Z,0
2019-03-25T04:08:44.557Z,0
2019-03-25T04:09:44.526Z,0
2019-03-25T04:10:44.597Z,0
2019-03-25T04:11:44.667Z,0
2019-03-25T04:12:44.605Z,0
2019-03-25T04:13:44.536Z,0
2019-03-25T04:14:44.526Z,0
2019-03-25T04:15:44.621Z,0
2019-03-25T04:16:44.537Z,0
2019-03-25T04:17:44.528Z,0
2019-03-25T04:18:44.522Z,0
2019-03-25T04:19:44.594Z,0
2019-03-25T04:20:44.622Z,0
2019-03-25T04:21:44.666Z,0
2019-03-25T04:22:44.595Z,0
2019-03-25T04:23:46.402Z,0
2019-03-25T04:24:44.527Z,0
2019-03-25T04:25:44.601Z,0
2019-03-25T04:26:44.600Z,0
2019-03-25T04:27:44.603Z,0
2019-03-25T04:28:44.617Z,0
2019-03-25T04:29:44.548Z,0
2019-03-25T04:30:44.546Z,0
2019-03-25T04:31:44.541Z,0
2019-03-25T04:32:44.607Z,0
2019-03-25T04:33:44.539Z,0
2019-03-25T04:34:44.564Z,0
2019-03-25T04:35:44.608Z,0
2019-03-25T04:36:44.543Z,0
2019-03-25T04:37:44.551Z,0
2019-03-25T04:38:44.606Z,0
2019-03-25T04:39:44.543Z,0
2019-03-25T04:40:44.546Z,0
2019-03-25T04:41:44.605Z,0
2019-03-25T04:42:44.537Z,0
2019-03-25T04:43:44.606Z,0
2019-03-25T04:44:44.533Z,0
2019-03-25T04:45:44.548Z,0
2019-03-25T04:46:44.536Z,4
2019-03-25T04:47:44.612Z,4
2019-03-25T04:48:44.589Z,0
2019-03-25T04:49:44.623Z,4
2019-03-25T04:50:44.627Z,4
2019-03-25T04:51:44.974Z,4
2019-03-25T04:52:44.554Z,8
2019-03-25T04:53:44.686Z,12
2019-03-25T04:54:44.569Z,16
2019-03-25T04:55:44.524Z,16
2019-03-25T04:56:44.638Z,20
2019-03-25T04:57:44.582Z,24
2019-03-25T04:58:44.554Z,36
2019-03-25T04:59:44.635Z,32
2019-03-25T05:00:44.631Z,28
2019-03-25T05:01:44.643Z,32
2019-03-25T05:02:44.558Z,40
2019-03-25T05:03:44.648Z,44
2019-03-25T05:04:44.654Z,56
2019-03-25T05:05:44.526Z,92
2019-03-25T05:06:44.624Z,124
2019-03-25T05:07:44.639Z,144
2019-03-25T05:08:44.646Z,164
2019-03-25T05:09:44.638Z,208
2019-03-25T05:10:44.523Z,252
2019-03-25T05:11:44.641Z,308
2019-03-25T05:12:44.583Z,364
2019-03-25T05:13:44.577Z,400
2019-03-25T05:14:44.568Z,448
2019-03-25T05:15:44.646Z,516
2019-03-25T05:16:44.641Z,580
2019-03-25T05:17:44.649Z,648
2019-03-25T05:18:44.524Z,752
2019-03-25T05:19:44.563Z,840
2019-03-25T05:20:44.615Z,904
2019-03-25T05:21:44.556Z,948
2019-03-25T05:22:44.524Z,1016
2019-03-25T05:23:44.616Z,1032
2019-03-25T05:24:44.542Z,1100
2019-03-25T05:25:44.617Z,1204
2019-03-25T05:26:50.914Z,1352
2019-03-25T05:27:44.625Z,1388
2019-03-25T05:28:44.643Z,1448
2019-03-25T05:29:44.565Z,1580
2019-03-25T05:30:44.667Z,1708
2019-03-25T05:31:44.641Z,1840
2019-03-25T05:32:44.644Z,1944
2019-03-25T05:33:44.642Z,2080
2019-03-25T05:34:44.577Z,2172
2019-03-25T05:35:46.772Z,2220
2019-03-25T05:36:44.646Z,2252
2019-03-25T05:37:44.574Z,2392
2019-03-25T05:38:44.580Z,2568
2019-03-25T05:39:44.642Z,2648
2019-03-25T05:40:44.641Z,2676
2019-03-25T05:41:44.636Z,2804
2019-03-25T05:42:44.559Z,3024
2019-03-25T05:43:44.535Z,3168
2019-03-25T05:44:44.601Z,3020
2019-03-25T05:45:44.560Z,2896
2019-03-25T05:46:44.636Z,2996
2019-03-25T05:47:44.647Z,2936
2019-03-25T05:48:44.543Z,3012
2019-03-25T05:49:44.577Z,3072
2019-03-25T05:50:44.574Z,3512
2019-03-25T05:51:44.654Z,2668
2019-03-25T05:52:44.581Z,1840
2019-03-25T05:53:44.582Z,2072
2019-03-25T05:54:44.647Z,2480
2019-03-25T05:55:44.582Z,2752
2019-03-25T05:56:44.751Z,2932
2019-03-25T05:57:44.656Z,3280
2019-03-25T05:58:44.540Z,3516
2019-03-25T05:59:44.600Z,4064
2019-03-25T06:00:44.603Z,4188
2019-03-25T06:01:44.536Z,4276
2019-03-25T06:02:44.587Z,4712
2019-03-25T06:03:44.594Z,5304
2019-03-25T06:04:44.485Z,5708
2019-03-25T06:05:44.554Z,5564
2019-03-25T06:06:44.547Z,6340
2019-03-25T06:07:44.561Z,6284
2019-03-25T06:08:44.607Z,5768
2019-03-25T06:09:44.605Z,5804
2019-03-25T06:10:44.686Z,6620
2019-03-25T06:11:44.698Z,7216
2019-03-25T06:12:44.697Z,6812
2019-03-25T06:13:44.608Z,5516
2019-03-25T06:14:44.681Z,4952
2019-03-25T06:15:44.678Z,4720
2019-03-25T06:16:44.624Z,4412
2019-03-25T06:17:44.677Z,5060
2019-03-25T06:18:44.594Z,5512
2019-03-25T06:19:44.667Z,6464
2019-03-25T06:20:44.674Z,7480
2019-03-25T06:21:44.604Z,6552
2019-03-25T06:22:44.639Z,5532
2019-03-25T06:23:44.612Z,6056
2019-03-25T06:24:44.591Z,5756
2019-03-25T06:25:44.605Z,5448
2019-03-25T06:26:44.609Z,5612
2019-03-25T06:27:44.611Z,5696
2019-03-25T06:28:44.635Z,6240
2019-03-25T06:29:44.544Z,6764
2019-03-25T06:30:44.589Z,6916
2019-03-25T06:31:44.606Z,7564
2019-03-25T06:32:44.612Z,8796
2019-03-25T06:33:44.639Z,10920
2019-03-25T06:34:44.552Z,13008
2019-03-25T06:35:44.542Z,14084
2019-03-25T06:36:44.577Z,13260
2019-03-25T06:37:44.647Z,12380
2019-03-25T06:38:44.702Z,13232
2019-03-25T06:39:44.625Z,16132
2019-03-25T06:40:44.627Z,16884
2019-03-25T06:41:44.699Z,16712
2019-03-25T06:42:44.628Z,14524
2019-03-25T06:43:44.635Z,13892
2019-03-25T06:44:44.698Z,13468
2019-03-25T06:45:44.698Z,12880
2019-03-25T06:46:44.628Z,12988
2019-03-25T06:47:44.701Z,14616
2019-03-25T06:48:44.621Z,13792
2019-03-25T06:49:44.660Z,12832
2019-03-25T06:50:44.606Z,11540
2019-03-25T06:51:45.332Z,10764
2019-03-25T06:52:44.604Z,11964
2019-03-25T06:53:44.625Z,14736
2019-03-25T06:54:44.629Z,17740
2019-03-25T06:55:44.690Z,20196
2019-03-25T06:56:44.647Z,22528
2019-03-25T06:57:44.700Z,19048
2019-03-25T06:58:44.627Z,14636
2019-03-25T06:59:44.662Z,12732
2019-03-25T07:00:44.654Z,11468
2019-03-25T07:01:44.675Z,10496
2019-03-25T07:02:44.628Z,10300
2019-03-25T07:03:44.704Z,10724
2019-03-25T07:04:44.702Z,10564
2019-03-25T07:05:44.679Z,11268
2019-03-25T07:06:44.703Z,12504
2019-03-25T07:07:44.701Z,38272
2019-03-25T07:08:44.587Z,46752
2019-03-25T07:09:44.616Z,49472
2019-03-25T07:10:44.590Z,50400
2019-03-25T07:11:44.586Z,25216
2019-03-25T07:12:44.708Z,21216
2019-03-25T07:13:44.695Z,19788
2019-03-25T07:14:44.710Z,19848
2019-03-25T07:15:44.721Z,48224
2019-03-25T07:16:44.610Z,21472
2019-03-25T07:17:44.700Z,52288
2019-03-25T07:18:44.668Z,27520
2019-03-25T07:19:44.730Z,62368
2019-03-25T07:20:44.717Z,27168
2019-03-25T07:21:44.655Z,19864
2019-03-25T07:22:44.715Z,13420
2019-03-25T07:23:44.610Z,13780
2019-03-25T07:24:44.715Z,15180
2019-03-25T07:25:44.642Z,19512
2019-03-25T07:26:44.619Z,30240
2019-03-25T07:27:44.721Z,38784
2019-03-25T07:28:44.736Z,37152
2019-03-25T07:29:44.634Z,22880
2019-03-25T07:30:44.647Z,16136
2019-03-25T07:31:44.656Z,16676
2019-03-25T07:32:44.727Z,17924
2019-03-25T07:33:44.649Z,15020
2019-03-25T07:34:44.615Z,9640
2019-03-25T07:35:44.622Z,6164
2019-03-25T07:36:44.658Z,5704
2019-03-25T07:37:44.628Z,7856
2019-03-25T07:38:44.651Z,12196
2019-03-25T07:39:44.724Z,16316
2019-03-25T07:40:44.615Z,17824
2019-03-25T07:41:44.743Z,18308
2019-03-25T07:42:44.735Z,21580
2019-03-25T07:43:44.734Z,19980
2019-03-25T07:44:44.661Z,16728
2019-03-25T07:45:44.647Z,14672
2019-03-25T07:46:44.631Z,15288
2019-03-25T07:47:44.662Z,16068
2019-03-25T07:48:44.645Z,49888
2019-03-25T07:49:44.645Z,65792
2019-03-25T07:50:44.736Z,85184
2019-03-25T07:51:44.620Z,58368
2019-03-25T07:52:44.685Z,33248
2019-03-25T07:53:44.674Z,35232
2019-03-25T07:54:44.647Z,92992
2019-03-25T07:55:44.683Z,45536
2019-03-25T07:56:44.628Z,40128
2019-03-25T07:57:48.546Z,26816
2019-03-25T07:58:44.761Z,24704
2019-03-25T07:59:44.716Z,27328
2019-03-25T08:00:44.723Z,21320
2019-03-25T08:01:44.687Z,19000
2019-03-25T08:02:44.755Z,20188
2019-03-25T08:03:44.705Z,22944
2019-03-25T08:04:44.701Z,20608
2019-03-25T08:05:44.757Z,20312
2019-03-25T08:06:44.718Z,24512
2019-03-25T08:07:44.759Z,34304
2019-03-25T08:08:44.785Z,44864
2019-03-25T08:09:44.751Z,36288
2019-03-25T08:10:44.763Z,27712
2019-03-25T08:11:44.789Z,27392
2019-03-25T08:12:44.690Z,30720
2019-03-25T08:13:44.756Z,28512
2019-03-25T08:14:44.734Z,33568
2019-03-25T08:15:44.771Z,32736
2019-03-25T08:16:44.752Z,30592
2019-03-25T08:17:44.667Z,46112
2019-03-25T08:18:44.767Z,41312
2019-03-25T08:19:44.708Z,37888
2019-03-25T08:20:44.709Z,32736
2019-03-25T08:21:44.769Z,30752
2019-03-25T08:22:44.771Z,27872
2019-03-25T08:23:44.770Z,26912
2019-03-25T08:24:44.701Z,33760
2019-03-25T08:25:44.710Z,37056
2019-03-25T08:26:44.781Z,32256
2019-03-25T08:27:44.825Z,29152
2019-03-25T08:28:44.706Z,27392
2019-03-25T08:29:44.710Z,28384
2019-03-25T08:30:44.775Z,25920
2019-03-25T08:31:44.723Z,20084
2019-03-25T08:32:44.721Z,19064
2019-03-25T08:33:44.799Z,20096
2019-03-25T08:34:44.781Z,22560
2019-03-25T08:35:44.779Z,24864
2019-03-25T08:36:44.785Z,29888
2019-03-25T08:37:44.753Z,33504
2019-03-25T08:38:44.713Z,37920
2019-03-25T08:39:44.716Z,42816
2019-03-25T08:40:44.713Z,44032
2019-03-25T08:41:44.711Z,53856
2019-03-25T08:42:44.728Z,54112
2019-03-25T08:43:44.714Z,67712
2019-03-25T08:44:44.714Z,61408
2019-03-25T08:45:44.784Z,56896
2019-03-25T08:46:44.797Z,53568
2019-03-25T08:47:44.787Z,48640
2019-03-25T08:48:44.723Z,47584
2019-03-25T08:49:44.789Z,51520
2019-03-25T08:50:44.789Z,56928
2019-03-25T08:51:44.722Z,59360
2019-03-25T08:52:44.789Z,40736
2019-03-25T08:53:44.722Z,36128
2019-03-25T08:54:44.796Z,30944
2019-03-25T08:55:44.731Z,29536
2019-03-25T08:56:44.783Z,27584
2019-03-25T08:57:44.787Z,29504
2019-03-25T08:58:44.784Z,31456
2019-03-25T08:59:44.664Z,34336
2019-03-25T09:00:44.695Z,40032
2019-03-25T09:01:44.745Z,47488
2019-03-25T09:02:44.663Z,46912
2019-03-25T09:03:44.734Z,46752
2019-03-25T09:04:44.778Z,48704
2019-03-25T09:05:44.661Z,46144
2019-03-25T09:06:44.753Z,40576
2019-03-25T09:07:44.725Z,38464
2019-03-25T09:08:44.702Z,42784
2019-03-25T09:09:44.787Z,37504
2019-03-25T09:10:44.723Z,31680
2019-03-25T09:11:44.722Z,28384
2019-03-25T09:12:44.767Z,26976
2019-03-25T09:13:44.797Z,26176
2019-03-25T09:14:44.728Z,30400
2019-03-25T09:15:44.734Z,37920
2019-03-25T09:16:44.722Z,46976
2019-03-25T09:17:44.734Z,45408
2019-03-25T09:18:44.727Z,35424
2019-03-25T09:19:44.701Z,20932
2019-03-25T09:20:44.785Z,15468
2019-03-25T09:21:44.686Z,12192
2019-03-25T09:22:44.789Z,11868
2019-03-25T09:23:44.769Z,15768
2019-03-25T09:24:44.738Z,19308
2019-03-25T09:25:44.751Z,17116
2019-03-25T09:26:44.748Z,15056
2019-03-25T09:27:44.794Z,12112
2019-03-25T09:28:44.815Z,9732
2019-03-25T09:29:44.765Z,9252
2019-03-25T09:30:44.811Z,10680
2019-03-25T09:31:44.821Z,11100
2019-03-25T09:32:44.814Z,9704
2019-03-25T09:33:44.826Z,9416
2019-03-25T09:34:44.752Z,11296
2019-03-25T09:35:44.795Z,13828
2019-03-25T09:36:44.819Z,16260
2019-03-25T09:37:44.816Z,16616
2019-03-25T09:38:44.757Z,14948
2019-03-25T09:39:44.822Z,14156
2019-03-25T09:40:44.753Z,18352
2019-03-25T09:41:44.834Z,25504
2019-03-25T09:42:44.765Z,29888
2019-03-25T09:43:44.761Z,46336
2019-03-25T09:44:44.824Z,75168
2019-03-25T09:45:44.829Z,43552
2019-03-25T09:46:44.887Z,141728
2019-03-25T09:47:44.835Z,58016
2019-03-25T09:48:44.813Z,52480
2019-03-25T09:49:44.731Z,47168
2019-03-25T09:50:44.765Z,81568
2019-03-25T09:51:44.699Z,115712
2019-03-25T09:52:44.808Z,113344
2019-03-25T09:53:44.723Z,155488
2019-03-25T09:54:44.792Z,59200
2019-03-25T09:55:44.737Z,94336
2019-03-25T09:56:44.812Z,86880
2019-03-25T09:58:44.737Z,163712
2019-03-25T09:59:44.836Z,150592
2019-03-25T10:00:44.769Z,97344
2019-03-25T10:01:44.767Z,70752
2019-03-25T10:02:44.793Z,61728
2019-03-25T10:03:44.851Z,62560
2019-03-25T10:04:44.814Z,68896
2019-03-25T10:05:44.773Z,68384
2019-03-25T10:06:44.841Z,60192
2019-03-25T10:07:44.843Z,65440
2019-03-25T10:08:44.776Z,99936
2019-03-25T10:09:44.893Z,120480
2019-03-25T10:10:44.797Z,79104
2019-03-25T10:11:44.770Z,49728
2019-03-25T10:12:44.819Z,36160
2019-03-25T10:13:44.826Z,43776
2019-03-25T10:14:44.736Z,84352
2019-03-25T10:15:44.748Z,62944
2019-03-25T10:16:44.722Z,80416
2019-03-25T10:17:44.784Z,80256
2019-03-25T10:18:44.828Z,56832
2019-03-25T10:19:44.751Z,38208
2019-03-25T10:20:44.840Z,36832
2019-03-25T10:21:44.856Z,44064
2019-03-25T10:22:44.774Z,47168
2019-03-25T10:23:44.886Z,39776
2019-03-25T10:24:44.784Z,27680
2019-03-25T10:25:44.737Z,33504
2019-03-25T10:26:44.776Z,46912
2019-03-25T10:27:44.822Z,42560
2019-03-25T10:28:48.853Z,35680
2019-03-25T10:29:44.893Z,38176
2019-03-25T10:30:44.866Z,48512
2019-03-25T10:31:44.857Z,59232
2019-03-25T10:32:44.791Z,81632
2019-03-25T10:33:44.859Z,86720
2019-03-25T10:34:44.859Z,92256
2019-03-25T10:35:44.791Z,80672
2019-03-25T10:36:44.865Z,79648
2019-03-25T10:37:44.894Z,53792
2019-03-25T10:38:44.781Z,45984
2019-03-25T10:39:44.797Z,39488
2019-03-25T10:40:44.874Z,34112
2019-03-25T10:41:44.868Z,27552
2019-03-25T10:42:44.796Z,22816
2019-03-25T10:43:44.867Z,20296
2019-03-25T10:44:44.866Z,23840
2019-03-25T10:45:44.877Z,24800
2019-03-25T10:46:44.873Z,23680
2019-03-25T10:47:44.870Z,24960
2019-03-25T10:48:44.824Z,22752
2019-03-25T10:49:44.870Z,18040
2019-03-25T10:50:44.843Z,12296
2019-03-25T10:51:44.882Z,7548
2019-03-25T10:52:44.875Z,5712
2019-03-25T10:53:44.809Z,5804
2019-03-25T10:54:45.004Z,8064
2019-03-25T10:55:44.877Z,6864
2019-03-25T10:56:49.200Z,6860
2019-03-25T10:57:44.820Z,7600
2019-03-25T10:58:44.810Z,7276
2019-03-25T10:59:44.906Z,6516
2019-03-25T11:00:44.880Z,8040
2019-03-25T11:01:44.848Z,12996
2019-03-25T11:02:44.817Z,21436
2019-03-25T11:03:44.818Z,34784
2019-03-25T11:04:44.847Z,44160
2019-03-25T11:05:44.814Z,49504
2019-03-25T11:06:44.886Z,52000
2019-03-25T11:07:44.781Z,54752
2019-03-25T11:08:44.821Z,54624
2019-03-25T11:09:44.885Z,50912
2019-03-25T11:10:44.886Z,50240
2019-03-25T11:11:44.823Z,48992
2019-03-25T11:12:44.839Z,47936
2019-03-25T11:13:44.894Z,52640
2019-03-25T11:14:44.902Z,99424
2019-03-25T11:15:44.892Z,103904
2019-03-25T11:16:44.822Z,60416
2019-03-25T11:17:44.896Z,50784
2019-03-25T11:18:44.902Z,104544
2019-03-25T11:19:44.893Z,145792
2019-03-25T11:20:44.893Z,170976
2019-03-25T11:21:44.827Z,58880
2019-03-25T11:22:44.784Z,65088
2019-03-25T11:23:44.840Z,163552
2019-03-25T11:24:44.897Z,64288
2019-03-25T11:25:44.899Z,171072
2019-03-25T11:26:44.931Z,100352
2019-03-25T11:27:54.104Z,63616
2019-03-25T11:28:44.908Z,53184
2019-03-25T11:29:44.909Z,43392
2019-03-25T11:30:44.835Z,36352
2019-03-25T11:31:44.847Z,29280
2019-03-25T11:32:44.838Z,23648
2019-03-25T11:33:44.900Z,17232
2019-03-25T11:34:44.850Z,14100
2019-03-25T11:35:44.904Z,12616
2019-03-25T11:36:44.842Z,11096
2019-03-25T11:37:44.904Z,11624
2019-03-25T11:38:44.853Z,12032
2019-03-25T11:39:44.908Z,12428
2019-03-25T11:40:44.917Z,13224
2019-03-25T11:41:44.840Z,15296
2019-03-25T11:42:44.810Z,16040
2019-03-25T11:43:44.913Z,14428
2019-03-25T11:44:44.905Z,14456
2019-03-25T11:45:44.923Z,20864
2019-03-25T11:46:44.843Z,30688
2019-03-25T11:47:44.845Z,42176
2019-03-25T11:48:44.846Z,41568
2019-03-25T11:49:44.872Z,39680
2019-03-25T11:50:44.924Z,46976
2019-03-25T11:51:44.847Z,59232
2019-03-25T11:52:44.916Z,68800
2019-03-25T11:53:44.921Z,104960
2019-03-25T11:54:44.923Z,52864
2019-03-25T11:55:44.944Z,110880
2019-03-25T11:56:44.852Z,57888
2019-03-25T11:57:44.879Z,51552
2019-03-25T11:58:44.881Z,47840
2019-03-25T11:59:44.912Z,44672
2019-03-25T12:00:44.884Z,45216
2019-03-25T12:01:44.826Z,44544
2019-03-25T12:02:44.914Z,36192
2019-03-25T12:03:44.908Z,23168
2019-03-25T12:04:44.817Z,17788
2019-03-25T12:05:44.827Z,15996
2019-03-25T12:06:44.911Z,13280
2019-03-25T12:07:44.831Z,10408
2019-03-25T12:08:44.880Z,10184
2019-03-25T12:09:44.827Z,12860
2019-03-25T12:10:44.844Z,15548
2019-03-25T12:11:44.914Z,22112
2019-03-25T12:12:44.923Z,29120
2019-03-25T12:13:44.925Z,28320
2019-03-25T12:14:44.924Z,24800
2019-03-25T12:15:44.884Z,25888
2019-03-25T12:16:44.830Z,32704
2019-03-25T12:17:44.857Z,43456
2019-03-25T12:18:44.935Z,83840
2019-03-25T12:19:44.831Z,63872
2019-03-25T12:20:44.916Z,54208
2019-03-25T12:21:44.928Z,137728
2019-03-25T12:22:44.806Z,113280
2019-03-25T12:23:44.815Z,117376
2019-03-25T12:24:44.925Z,90432
2019-03-25T12:25:44.832Z,131200
2019-03-25T12:26:44.813Z,152896
2019-03-25T12:27:44.879Z,146272
2019-03-25T12:28:44.918Z,58848
2019-03-25T12:29:44.949Z,75296
2019-03-25T12:30:44.945Z,59904
2019-03-25T12:31:44.879Z,125024
2019-03-25T12:32:44.948Z,143680
2019-03-25T12:33:44.845Z,143328
2019-03-25T12:34:44.889Z,157280
2019-03-25T12:35:44.949Z,37088
2019-03-25T12:36:44.880Z,62400
2019-03-25T12:37:44.961Z,51104
2019-03-25T12:38:44.951Z,134176
2019-03-25T12:39:44.848Z,75232
2019-03-25T12:40:44.818Z,94752
2019-03-25T12:41:44.910Z,135168
2019-03-25T12:42:44.883Z,40896
2019-03-25T12:43:44.855Z,38016
2019-03-25T12:44:44.939Z,43936
2019-03-25T12:45:44.854Z,40320
2019-03-25T12:46:44.932Z,38496
2019-03-25T12:47:44.882Z,40224
2019-03-25T12:48:44.948Z,34464
2019-03-25T12:49:44.887Z,34368
2019-03-25T12:50:44.966Z,31456
2019-03-25T12:51:44.891Z,30944
2019-03-25T12:52:44.900Z,37184
2019-03-25T12:53:44.962Z,43968
2019-03-25T12:54:44.960Z,39360
2019-03-25T12:55:44.963Z,29632
2019-03-25T12:56:44.973Z,34112
2019-03-25T12:57:44.899Z,35648
2019-03-25T12:58:44.920Z,30816
2019-03-25T12:59:44.902Z,34720
2019-03-25T13:00:44.864Z,42592
2019-03-25T13:01:52.977Z,45216
2019-03-25T13:02:44.904Z,43552
2019-03-25T13:03:44.900Z,43456
2019-03-25T13:04:44.838Z,41440
2019-03-25T13:05:44.955Z,43552
2019-03-25T13:06:44.958Z,136160
2019-03-25T13:07:44.932Z,132288
2019-03-25T13:08:44.840Z,129088
2019-03-25T13:09:44.972Z,40320
2019-03-25T13:10:44.908Z,43776
2019-03-25T13:11:44.909Z,140000
2019-03-25T13:12:44.923Z,137568
2019-03-25T13:13:44.976Z,130464
2019-03-25T13:14:44.922Z,31168
2019-03-25T13:15:44.909Z,126464
2019-03-25T13:16:44.920Z,40064
2019-03-25T13:17:44.986Z,55680
2019-03-25T13:18:44.909Z,121312
2019-03-25T13:19:44.981Z,55360
2019-03-25T13:20:44.982Z,58048
2019-03-25T13:21:44.980Z,60448
2019-03-25T13:22:44.922Z,63680
2019-03-25T13:23:44.929Z,57376
2019-03-25T13:24:44.983Z,56672
2019-03-25T13:25:44.917Z,42240
2019-03-25T13:26:45.079Z,37856
2019-03-25T13:27:44.983Z,40832
2019-03-25T13:28:45.103Z,44512
2019-03-25T13:29:52.591Z,49024
2019-03-25T13:30:44.921Z,52352
2019-03-25T13:31:44.916Z,51552
2019-03-25T13:32:44.921Z,60704
2019-03-25T13:33:44.990Z,84704
2019-03-25T13:34:44.920Z,65568
2019-03-25T13:35:45.007Z,94880